Time;durP1;ratioP1;P1;durP2;ratioP2;P2;SDS_P1;SDS_P2;PMS_P1;PMS_P2;Temp;Humidity;BMP_temperature;BMP_pressure;BME280_temperature;BME280_humidity;BME280_pressure;Samples;Min_cycle;Max_cycle;Signal;HPM_P1;HPM_P2
2022/08/18 00:02:12;;;;;;;10.52;5.18;;;18.80;99.90;;;;;;4992803;28;20121;-73
2022/08/18 00:04:38;;;;;;;11.85;5.13;;;18.80;99.90;;;;;;4992615;28;20486;-73
2022/08/18 00:07:06;;;;;;;13.98;6.88;;;18.80;99.90;;;;;;4974807;28;20049;-73
2022/08/18 00:09:34;;;;;;;7.25;4.88;;;18.80;99.90;;;;;;4993152;28;20046;-72
2022/08/18 00:12:03;;;;;;;9.45;5.65;;;17.40;99.90;;;;;;4992799;28;20053;-72
2022/08/18 00:14:29;;;;;;;27.23;7.85;;;18.70;99.90;;;;;;4993083;28;20046;-73
2022/08/18 00:16:55;;;;;;;11.23;5.88;;;18.70;99.90;;;;;;4992459;28;20499;-72
2022/08/18 00:19:23;;;;;;;13.38;5.75;;;18.70;99.90;;;;;;4992888;28;20038;-72
2022/08/18 00:21:49;;;;;;;10.55;6.22;;;18.70;99.90;;;;;;4992799;28;20062;-72
2022/08/18 00:24:14;;;;;;;15.48;6.93;;;18.70;99.90;;;;;;4992938;28;20488;-72
2022/08/18 00:26:40;;;;;;;15.05;6.72;;;18.70;99.90;;;;;;4993177;28;20077;-72
2022/08/18 00:29:06;;;;;;;9.35;5.57;;;18.70;99.90;;;;;;4993144;28;20051;-72
2022/08/18 00:31:32;;;;;;;8.60;5.00;;;18.70;99.90;;;;;;4993030;28;20088;-72
2022/08/18 00:33:59;;;;;;;9.02;5.65;;;18.70;99.90;;;;;;4992732;28;20517;-72
2022/08/18 00:36:25;;;;;;;11.93;5.95;;;18.70;99.90;;;;;;4992503;28;20379;-72
2022/08/18 00:38:52;;;;;;;19.17;6.13;;;18.70;99.90;;;;;;4992829;28;20077;-72
2022/08/18 00:41:19;;;;;;;9.63;5.75;;;18.80;99.90;;;;;;4992781;28;20047;-72
2022/08/18 00:43:51;;;;;;;8.25;5.60;;;18.80;99.90;;;;;;4992725;28;20054;-72
2022/08/18 00:46:23;;;;;;;11.13;5.95;;;18.70;99.90;;;;;;4992771;28;20450;-72
2022/08/18 00:48:51;;;;;;;10.30;5.45;;;18.80;99.90;;;;;;4992671;28;20038;-73
2022/08/18 00:51:45;;;;;;;10.65;5.10;;;18.70;99.90;;;;;;4975380;28;20124;-72
2022/08/18 00:54:17;;;;;;;9.73;5.35;;;18.70;99.90;;;;;;4975668;28;20218;-72
2022/08/18 00:56:47;;;;;;;6.20;5.10;;;18.80;99.90;;;;;;4992704;28;20054;-72
2022/08/18 00:59:47;;;;;;;11.48;6.20;;;18.80;99.90;;;;;;4992421;28;20058;-72
2022/08/18 01:02:25;;;;;;;9.63;6.05;;;18.80;99.90;;;;;;4987904;28;20113;-72
2022/08/18 01:05:11;;;;;;;6.68;4.70;;;18.80;99.90;;;;;;4993070;28;20052;-72
2022/08/18 01:07:46;;;;;;;14.32;6.20;;;18.80;99.90;;;;;;4992986;28;20049;-72
2022/08/18 01:10:20;;;;;;;10.82;6.40;;;18.90;99.90;;;;;;4992546;28;20054;-73
2022/08/18 01:12:54;;;;;;;11.13;6.72;;;18.90;99.90;;;;;;4993084;28;20100;-71
2022/08/18 01:15:22;;;;;;;14.80;7.45;;;18.90;99.90;;;;;;4992799;28;20042;-72
2022/08/18 01:23:47;;;;;;;12.55;6.95;;;18.90;99.90;;;;;;4992392;28;20137;-72
2022/08/18 01:26:15;;;;;;;11.32;6.38;;;18.90;99.90;;;;;;4991371;28;20118;-72
2022/08/18 01:28:44;;;;;;;10.15;6.05;;;18.90;99.90;;;;;;4992288;28;20043;-72
2022/08/18 01:31:12;;;;;;;14.05;7.70;;;18.90;99.90;;;;;;4995936;28;20046;-72
2022/08/18 01:33:43;;;;;;;11.10;6.15;;;18.90;99.90;;;;;;4995747;28;20046;-72
2022/08/18 01:36:15;;;;;;;13.02;6.05;;;19.00;99.90;;;;;;4995721;28;20089;-72
2022/08/18 01:38:42;;;;;;;10.27;7.35;;;18.90;99.90;;;;;;4996149;28;20116;-73
2022/08/18 01:41:08;;;;;;;11.07;6.10;;;18.90;99.90;;;;;;4995653;28;20052;-73
2022/08/18 01:43:35;;;;;;;11.88;6.63;;;18.90;99.90;;;;;;4995586;28;20046;-73
2022/08/18 01:46:03;;;;;;;10.38;6.15;;;18.90;99.90;;;;;;4994410;28;20518;-72
2022/08/18 01:48:33;;;;;;;11.25;6.07;;;18.90;99.90;;;;;;4995579;28;20092;-72
2022/08/18 01:51:04;;;;;;;11.02;5.78;;;18.90;99.90;;;;;;4994378;28;20046;-72
2022/08/18 01:53:30;;;;;;;13.20;7.13;;;18.90;99.90;;;;;;4995627;28;20050;-72
2022/08/18 01:55:56;;;;;;;12.65;6.25;;;18.80;99.90;;;;;;4995636;28;20390;-72
2022/08/18 01:58:26;;;;;;;10.27;5.47;;;18.70;99.90;;;;;;4995352;28;20038;-73
2022/08/18 02:00:56;;;;;;;13.85;6.03;;;18.80;99.90;;;;;;4995276;28;20050;-72
2022/08/18 02:03:25;;;;;;;8.20;5.22;;;18.70;99.90;;;;;;4994913;28;20042;-72
2022/08/18 02:05:56;;;;;;;14.02;5.93;;;18.70;99.90;;;;;;4995205;28;20057;-72
2022/08/18 02:08:22;;;;;;;7.72;5.40;;;18.70;99.90;;;;;;4995209;28;20042;-72
2022/08/18 02:10:47;;;;;;;12.68;6.00;;;18.70;99.90;;;;;;4995219;28;20042;-72
2022/08/18 02:13:13;;;;;;;9.85;5.90;;;18.70;99.90;;;;;;4995028;28;20547;-73
2022/08/18 02:15:39;;;;;;;9.68;5.85;;;18.70;99.90;;;;;;4977676;28;20054;-73
2022/08/18 02:18:04;;;;;;;11.90;5.78;;;18.70;99.90;;;;;;4994950;28;20074;-73
2022/08/18 02:20:31;;;;;;;14.07;6.10;;;18.70;99.90;;;;;;4994979;28;20446;-73
2022/08/18 02:22:57;;;;;;;11.68;5.15;;;18.70;99.90;;;;;;4994858;28;20047;-72
2022/08/18 02:25:23;;;;;;;10.15;6.07;;;18.70;99.90;;;;;;4994378;28;20491;-72
2022/08/18 02:27:49;;;;;;;9.75;5.97;;;18.70;99.90;;;;;;4994514;28;20073;-73
2022/08/18 02:30:18;;;;;;;8.07;4.75;;;18.70;99.90;;;;;;4994604;28;20046;-73
2022/08/18 02:32:43;;;;;;;10.95;4.80;;;18.80;99.90;;;;;;4995062;28;20500;-73
2022/08/18 02:35:10;;;;;;;8.27;5.63;;;18.80;99.90;;;;;;4995406;28;20092;-72
2022/08/18 02:37:36;;;;;;;9.25;5.63;;;18.80;99.90;;;;;;4994652;28;20061;-72
2022/08/18 02:40:03;;;;;;;6.95;4.38;;;18.80;99.90;;;;;;4994353;28;20054;-73
2022/08/18 02:42:29;;;;;;;7.88;4.82;;;18.80;99.90;;;;;;4994033;28;20046;-72
2022/08/18 02:44:55;;;;;;;7.03;4.68;;;18.80;99.90;;;;;;4994348;28;20129;-73
2022/08/18 02:47:21;;;;;;;8.88;4.63;;;18.80;99.90;;;;;;4994435;28;20137;-72
2022/08/18 02:49:47;;;;;;;12.95;5.70;;;18.90;99.90;;;;;;4994307;28;20060;-72
2022/08/18 02:52:13;;;;;;;10.07;5.72;;;18.90;99.90;;;;;;4994173;28;20053;-72
2022/08/18 02:54:39;;;;;;;13.45;5.97;;;18.90;99.90;;;;;;4994285;28;20046;-72
2022/08/18 02:57:09;;;;;;;6.03;4.90;;;18.90;99.90;;;;;;4994337;28;20393;-73
2022/08/18 02:59:37;;;;;;;8.48;4.88;;;18.90;99.90;;;;;;4994390;28;20041;-72
2022/08/18 03:02:04;;;;;;;8.27;5.43;;;19.00;99.90;;;;;;4977488;28;20069;-72
2022/08/18 03:04:30;;;;;;;14.02;6.15;;;19.00;99.90;;;;;;4994287;28;20054;-72
2022/08/18 03:06:58;;;;;;;8.48;5.72;;;19.00;99.90;;;;;;4994200;28;20072;-72
2022/08/18 03:09:24;;;;;;;9.98;6.43;;;19.00;99.90;;;;;;4994639;28;20074;-72
2022/08/18 03:11:50;;;;;;;11.45;6.65;;;18.90;99.90;;;;;;4993932;28;20541;-73
2022/08/18 03:14:16;;;;;;;10.60;5.72;;;19.00;99.90;;;;;;4994272;28;20042;-72
2022/08/18 03:16:45;;;;;;;9.15;5.20;;;18.90;99.90;;;;;;4993872;28;20435;-72
2022/08/18 03:19:13;;;;;;;14.73;6.25;;;19.00;99.90;;;;;;4993687;28;20475;-73
2022/08/18 03:21:39;;;;;;;12.60;6.88;;;18.90;99.90;;;;;;4993817;28;20061;-73
2022/08/18 03:24:05;;;;;;;13.40;5.60;;;18.90;99.90;;;;;;4994036;28;20042;-73
2022/08/18 03:26:31;;;;;;;10.65;6.55;;;18.90;99.90;;;;;;4993431;28;20104;-73
2022/08/18 03:29:01;;;;;;;9.93;5.88;;;18.80;99.90;;;;;;4993197;28;20460;-73
2022/08/18 03:31:30;;;;;;;12.15;5.40;;;18.80;99.90;;;;;;4993438;28;20493;-73
2022/08/18 03:33:57;;;;;;;9.73;6.38;;;18.80;99.90;;;;;;4993496;28;20062;-73
2022/08/18 03:36:25;;;;;;;10.55;6.30;;;18.80;99.90;;;;;;4993531;28;20050;-73
2022/08/18 03:38:52;;;;;;;12.68;6.38;;;18.80;99.90;;;;;;4993381;28;20176;-72
2022/08/18 03:41:24;;;;;;;11.30;5.20;;;18.70;99.90;;;;;;4993479;28;20086;-73
2022/08/18 03:43:50;;;;;;;15.02;7.10;;;18.80;99.90;;;;;;4992285;28;20569;-72
2022/08/18 03:46:18;;;;;;;12.32;7.60;;;18.80;99.90;;;;;;4993818;28;20140;-73
2022/08/18 03:48:46;;;;;;;9.98;6.47;;;18.70;99.90;;;;;;4993288;28;20046;-73
2022/08/18 03:51:18;;;;;;;15.75;7.05;;;18.80;99.90;;;;;;4993605;28;20062;-73
2022/08/18 03:53:47;;;;;;;10.68;6.45;;;18.80;99.90;;;;;;4993052;28;20046;-73
2022/08/18 03:56:15;;;;;;;10.88;5.93;;;18.80;99.90;;;;;;4993570;28;20046;-72
2022/08/18 03:58:44;;;;;;;14.10;6.32;;;18.80;99.90;;;;;;4992965;28;20042;-73
2022/08/18 04:01:14;;;;;;;11.45;5.20;;;18.80;99.90;;;;;;4993150;28;20061;-72
2022/08/18 04:03:41;;;;;;;11.57;7.07;;;18.80;99.90;;;;;;4993129;28;20061;-73
2022/08/18 04:06:07;;;;;;;12.32;7.63;;;18.80;99.90;;;;;;4993039;28;20058;-73
2022/08/18 04:08:33;;;;;;;9.13;6.55;;;18.80;99.90;;;;;;4993082;28;20100;-73
2022/08/18 04:10:58;;;;;;;9.38;6.35;;;18.80;99.90;;;;;;4993295;28;20057;-73
2022/08/18 04:13:24;;;;;;;10.95;6.15;;;18.80;99.90;;;;;;4992889;28;20042;-72
2022/08/18 04:15:50;;;;;;;14.82;6.53;;;18.80;99.90;;;;;;4993191;28;20095;-72
2022/08/18 04:18:16;;;;;;;14.30;7.75;;;18.80;99.90;;;;;;4993558;28;20043;-73
2022/08/18 04:20:41;;;;;;;13.65;7.10;;;18.80;99.90;;;;;;4992975;28;20051;-73
2022/08/18 04:23:07;;;;;;;13.80;7.88;;;18.80;99.90;;;;;;4992990;28;20058;-74
2022/08/18 04:25:33;;;;;;;11.63;7.05;;;18.80;99.90;;;;;;4992807;28;20063;-72
2022/08/18 04:28:01;;;;;;;15.77;7.82;;;18.80;99.90;;;;;;4992969;28;20046;-72
2022/08/18 04:30:27;;;;;;;15.68;8.05;;;18.80;99.90;;;;;;4992778;28;20081;-73
2022/08/18 04:32:53;;;;;;;11.15;6.90;;;18.90;99.90;;;;;;4992703;28;20123;-72
2022/08/18 04:35:19;;;;;;;10.93;7.78;;;18.80;99.90;;;;;;4993127;28;20554;-73
2022/08/18 04:37:45;;;;;;;14.68;7.70;;;18.90;99.90;;;;;;4992694;28;20096;-73
2022/08/18 04:40:13;;;;;;;13.20;6.88;;;18.80;99.90;;;;;;4992373;28;20054;-73
2022/08/18 04:42:38;;;;;;;11.45;7.40;;;18.80;99.90;;;;;;4993049;28;20057;-73
2022/08/18 04:45:05;;;;;;;15.80;7.25;;;18.80;99.90;;;;;;4993215;28;20042;-73
2022/08/18 04:47:31;;;;;;;12.43;6.22;;;18.80;99.90;;;;;;4992782;28;20046;-75
2022/08/18 04:49:57;;;;;;;14.75;8.27;;;18.80;99.90;;;;;;4992858;28;20430;-75
2022/08/18 04:55:07;;;;;;;15.30;7.78;;;18.80;99.90;;;;;;4993192;28;20093;-75
2022/08/18 04:57:34;;;;;;;11.85;7.53;;;18.80;99.90;;;;;;4992651;28;20105;-75
2022/08/18 04:59:59;;;;;;;15.27;6.82;;;18.80;99.90;;;;;;4992119;28;20055;-75
2022/08/18 05:02:25;;;;;;;15.50;8.23;;;18.80;99.90;;;;;;4992784;28;20138;-75
2022/08/18 05:04:51;;;;;;;9.27;7.35;;;18.90;99.90;;;;;;4993981;28;20105;-75
2022/08/18 05:07:21;;;;;;;12.60;8.20;;;18.90;99.90;;;;;;4979076;28;20105;-75
2022/08/18 05:09:48;;;;;;;12.00;6.50;;;18.90;99.90;;;;;;4979590;28;20054;-76
2022/08/18 05:12:15;;;;;;;11.77;7.28;;;19.00;99.90;;;;;;4996123;28;20400;-75
2022/08/18 05:14:43;;;;;;;9.18;6.72;;;19.00;99.90;;;;;;4996068;28;20092;-75
2022/08/18 05:17:09;;;;;;;10.43;7.13;;;19.00;99.90;;;;;;4996059;28;20082;-75
2022/08/18 05:19:35;;;;;;;13.50;7.45;;;19.00;99.90;;;;;;4995895;28;20038;-75
2022/08/18 05:22:02;;;;;;;16.63;7.82;;;19.10;99.90;;;;;;4979222;28;20058;-75
2022/08/18 05:24:29;;;;;;;12.02;6.70;;;19.10;99.90;;;;;;4995597;28;20494;-76
2022/08/18 05:26:55;;;;;;;10.18;6.60;;;19.10;99.90;;;;;;4994557;28;20058;-74
2022/08/18 05:29:22;;;;;;;15.98;6.65;;;19.20;99.90;;;;;;4995866;28;20048;-75
2022/08/18 05:31:49;;;;;;;10.98;7.32;;;19.20;99.90;;;;;;4996167;28;20050;-75
2022/08/18 05:34:18;;;;;;;13.38;7.47;;;19.20;99.90;;;;;;4995811;28;20137;-75
2022/08/18 05:36:50;;;;;;;12.10;6.90;;;19.20;99.90;;;;;;4995727;28;20137;-75
2022/08/18 05:39:51;;;;;;;18.13;6.70;;;19.20;99.90;;;;;;4996247;28;20108;-75
2022/08/18 05:42:20;;;;;;;11.70;6.30;;;19.20;99.90;;;;;;4951923;28;20403;-75
2022/08/18 05:44:50;;;;;;;9.90;6.32;;;19.20;99.90;;;;;;4995764;28;20046;-75
2022/08/18 05:47:18;;;;;;;11.05;6.00;;;19.20;99.90;;;;;;4995677;28;20048;-75
2022/08/18 05:49:49;;;;;;;13.93;6.20;;;19.20;99.90;;;;;;4995988;28;20189;-78
2022/08/18 05:52:29;;;;;;;8.00;7.15;;;19.20;99.90;;;;;;4995543;28;20053;-75
2022/08/18 05:58:00;;;;;;;11.35;6.88;;;19.20;99.90;;;;;;4958527;28;20046;-77
2022/08/18 06:00:28;;;;;;;11.40;7.15;;;19.20;99.90;;;;;;4995258;28;20046;-76
2022/08/18 06:03:15;;;;;;;9.50;7.07;;;19.10;99.90;;;;;;4995186;28;20463;-78
2022/08/18 06:06:00;;;;;;;11.43;6.18;;;19.20;99.90;;;;;;4995216;28;20082;-75
2022/08/18 06:08:32;;;;;;;14.85;6.70;;;19.20;99.90;;;;;;4993999;28;20042;-74
2022/08/18 06:10:58;;;;;;;8.20;6.18;;;19.30;99.90;;;;;;4994346;28;20049;-74
2022/08/18 06:13:24;;;;;;;12.02;7.40;;;19.40;99.90;;;;;;4995187;28;20042;-75
2022/08/18 06:16:07;;;;;;;14.57;7.53;;;19.40;99.90;;;;;;4994840;28;20092;-73
2022/08/18 06:18:44;;;;;;;9.20;6.90;;;19.50;99.90;;;;;;4994469;28;20057;-72
2022/08/18 06:21:33;;;;;;;8.80;7.20;;;19.50;99.90;;;;;;4995266;28;20077;-73
2022/08/18 06:24:05;;;;;;;8.43;6.75;;;19.50;99.90;;;;;;4994529;28;20093;-74
2022/08/18 06:26:57;;;;;;;10.07;6.05;;;19.40;99.90;;;;;;4994222;28;20061;-72
2022/08/18 06:29:46;;;;;;;9.38;6.65;;;19.50;99.90;;;;;;4994258;28;20097;-73
2022/08/18 06:32:27;;;;;;;9.13;7.05;;;19.40;99.90;;;;;;4994449;28;20356;-73
2022/08/18 06:35:09;;;;;;;5.32;4.78;;;19.40;99.90;;;;;;4994882;28;20222;-73
2022/08/18 06:40:34;;;;;;;8.48;6.78;;;19.50;99.90;;;;;;4993941;28;20076;-72
2022/08/18 06:42:59;;;;;;;9.02;6.75;;;19.50;99.90;;;;;;4977030;28;20560;-72
2022/08/18 06:45:33;;;;;;;8.52;6.53;;;19.60;99.90;;;;;;4993859;28;20042;-73
2022/08/18 06:48:11;;;;;;;11.45;6.38;;;19.60;99.90;;;;;;4994277;28;20104;-73
2022/08/18 06:50:47;;;;;;;10.13;6.13;;;19.60;99.90;;;;;;4994319;28;20116;-72
2022/08/18 06:53:13;;;;;;;9.88;6.22;;;19.70;99.90;;;;;;4994353;28;20046;-72
2022/08/18 06:55:49;;;;;;;11.50;6.68;;;19.70;99.90;;;;;;4994441;28;20058;-72
2022/08/18 06:58:14;;;;;;;8.45;6.13;;;19.80;99.90;;;;;;4994154;28;20049;-72
2022/08/18 07:01:06;;;;;;;10.00;6.93;;;20.00;99.90;;;;;;4994090;28;20047;-72
2022/08/18 07:03:38;;;;;;;10.63;5.93;;;20.20;99.90;;;;;;4965838;28;20478;-72
2022/08/18 07:06:05;;;;;;;8.60;5.05;;;20.50;99.90;;;;;;4993584;28;20058;-73
2022/08/18 07:08:40;;;;;;;10.48;5.53;;;20.80;99.90;;;;;;4993764;28;20053;-73
2022/08/18 07:11:32;;;;;;;9.23;5.10;;;21.00;99.90;;;;;;4976742;28;20412;-73
2022/08/18 07:14:21;;;;;;;6.53;5.50;;;21.10;99.90;;;;;;4989733;28;20545;-74
2022/08/18 07:16:47;;;;;;;6.50;5.05;;;21.10;99.90;;;;;;4993427;28;20050;-73
2022/08/18 07:19:19;;;;;;;6.20;4.90;;;21.20;99.90;;;;;;4993452;28;20061;-73
2022/08/18 07:21:59;;;;;;;5.95;4.15;;;21.00;99.90;;;;;;4993509;28;20125;-74
2022/08/18 07:24:33;;;;;;;11.65;4.65;;;20.90;99.90;;;;;;4993547;28;20050;-73
2022/08/18 07:27:20;;;;;;;12.23;5.15;;;20.60;99.90;;;;;;4993219;28;20133;-73
2022/08/18 07:30:32;;;;;;;6.05;4.35;;;21.60;99.90;;;;;;4993437;28;20046;-73
2022/08/18 07:33:22;;;;;;;10.68;4.00;;;20.10;99.90;;;;;;4949981;28;20541;-73
2022/08/18 07:35:57;;;;;;;6.00;3.80;;;20.10;99.90;;;;;;4993900;28;20081;-73
2022/08/18 07:38:37;;;;;;;7.25;3.72;;;20.00;99.90;;;;;;4993531;28;20118;-72
2022/08/18 07:41:19;;;;;;;6.68;4.05;;;19.90;99.90;;;;;;4993578;28;20042;-71
2022/08/18 07:44:15;;;;;;;9.10;4.45;;;19.90;99.90;;;;;;4992965;28;20493;-70
2022/08/18 07:46:59;;;;;;;8.70;4.45;;;19.90;99.90;;;;;;4993371;28;20054;-70
2022/08/18 07:49:31;;;;;;;11.20;4.53;;;19.80;99.90;;;;;;4993267;28;20038;-74
2022/08/18 07:52:10;;;;;;;8.77;4.25;;;19.80;99.90;;;;;;4993215;28;20522;-74
2022/08/18 07:55:07;;;;;;;6.50;3.00;;;19.60;99.90;;;;;;4993487;28;20076;-73
2022/08/18 07:58:06;;;;;;;10.68;4.50;;;19.60;99.90;;;;;;4993291;28;20042;-73
2022/08/18 08:00:42;;;;;;;5.65;2.78;;;19.90;99.90;;;;;;4993374;28;20047;-73
2022/08/18 08:03:28;;;;;;;9.98;3.75;;;19.60;99.90;;;;;;4993692;28;20123;-75
2022/08/18 08:06:19;;;;;;;5.53;3.00;;;19.70;99.90;;;;;;4993157;28;20113;-73
2022/08/18 08:09:01;;;;;;;6.25;2.97;;;19.70;99.90;;;;;;4993163;28;20072;-73
2022/08/18 08:11:50;;;;;;;8.68;2.85;;;19.70;99.90;;;;;;4993108;28;20062;-73
2022/08/18 08:14:37;;;;;;;8.13;3.45;;;19.70;99.90;;;;;;4992835;28;20062;-74
2022/08/18 08:17:57;;;;;;;8.25;4.07;;;19.70;99.90;;;;;;4993211;28;20053;-73
2022/08/18 08:20:31;;;;;;;5.32;2.67;;;19.70;99.90;;;;;;4914006;29;20059;-73
2022/08/18 08:22:57;;;;;;;6.43;2.50;;;19.70;99.90;;;;;;4980355;28;20061;-73
2022/08/18 08:25:36;;;;;;;5.47;3.05;;;19.70;99.90;;;;;;4992991;28;20074;-75
2022/08/18 08:28:33;;;;;;;8.88;2.88;;;19.80;99.90;;;;;;4993180;28;20173;-73
2022/08/18 08:30:58;;;;;;;9.70;3.15;;;20.10;99.90;;;;;;4992998;28;20046;-74
2022/08/18 08:33:44;;;;;;;5.25;3.38;;;20.90;99.90;;;;;;4992745;28;20050;-75
2022/08/18 08:36:12;;;;;;;5.72;2.15;;;21.50;99.90;;;;;;4992799;28;20046;-75
2022/08/18 08:38:38;;;;;;;3.17;2.60;;;22.20;99.90;;;;;;4993592;28;20482;-74
2022/08/18 08:41:33;;;;;;;6.75;2.75;;;23.00;99.90;;;;;;4996779;28;20054;-73
2022/08/18 08:44:16;;;;;;;8.98;3.33;;;23.20;99.90;;;;;;4986048;28;20517;-74
2022/08/18 08:46:51;;;;;;;7.32;2.72;;;22.70;99.90;;;;;;4996656;28;20050;-75
2022/08/18 08:49:39;;;;;;;4.78;2.55;;;22.20;99.90;;;;;;4997184;28;20088;-74
2022/08/18 08:52:14;;;;;;;4.22;2.60;;;21.70;99.90;;;;;;4996683;28;20046;-74
2022/08/18 08:54:51;;;;;;;6.00;2.50;;;21.60;99.90;;;;;;4996532;28;20061;-75
2022/08/18 08:57:17;;;;;;;5.82;2.10;;;21.20;99.90;;;;;;4996514;28;20062;-73
2022/08/18 08:59:46;;;;;;;6.07;2.28;;;21.40;99.90;;;;;;4996421;28;20101;-74
2022/08/18 09:02:21;;;;;;;6.25;2.20;;;21.50;99.90;;;;;;4996448;28;20069;-75
2022/08/18 09:05:10;;;;;;;6.13;2.22;;;21.50;99.90;;;;;;4996807;28;20050;-74
2022/08/18 09:08:17;;;;;;;3.22;2.90;;;21.40;99.90;;;;;;4996601;28;20199;-74
2022/08/18 09:10:56;;;;;;;7.22;2.40;;;21.30;99.90;;;;;;4979121;28;20482;-75
2022/08/18 09:13:58;;;;;;;3.50;2.03;;;21.20;99.90;;;;;;4996231;28;20057;-74
2022/08/18 09:16:50;;;;;;;4.40;1.83;;;21.20;99.90;;;;;;4996144;28;20057;-75
2022/08/18 09:19:26;;;;;;;3.92;1.70;;;21.10;99.90;;;;;;4996619;28;20039;-75
2022/08/18 09:22:02;;;;;;;3.97;2.13;;;21.30;99.90;;;;;;4996643;28;20046;-74
2022/08/18 09:24:31;;;;;;;2.53;1.73;;;21.40;99.90;;;;;;4996097;28;20050;-75
2022/08/18 09:27:03;;;;;;;3.50;1.88;;;21.40;99.90;;;;;;4995822;28;20081;-74
2022/08/18 09:29:38;;;;;;;4.30;1.83;;;21.50;99.90;;;;;;4995834;28;20046;-75
2022/08/18 09:32:19;;;;;;;5.72;2.35;;;21.10;99.90;;;;;;4995866;28;20050;-76
2022/08/18 09:34:45;;;;;;;5.60;2.30;;;21.00;99.90;;;;;;4978760;28;20047;-75
2022/08/18 09:37:10;;;;;;;7.40;3.10;;;21.00;99.90;;;;;;4995859;28;20061;-74
2022/08/18 09:42:25;;;;;;;5.78;3.28;;;21.30;99.90;;;;;;4995432;28;20410;-74
2022/08/18 09:44:51;;;;;;;2.25;2.05;;;21.60;99.90;;;;;;4995507;28;20042;-74
2022/08/18 09:47:20;;;;;;;3.53;2.25;;;21.70;99.90;;;;;;4995878;28;20050;-75
2022/08/18 09:49:52;;;;;;;3.53;2.42;;;21.80;99.90;;;;;;4995224;28;20042;-76
2022/08/18 09:52:21;;;;;;;3.35;2.28;;;21.90;99.90;;;;;;4995866;28;20054;-76
2022/08/18 09:54:57;;;;;;;8.07;2.53;;;21.90;99.90;;;;;;4962144;28;20147;-75
2022/08/18 09:57:36;;;;;;;3.70;2.40;;;21.80;99.90;;;;;;4995448;28;20521;-76
2022/08/18 10:00:02;;;;;;;5.53;1.95;;;21.80;99.90;;;;;;4995317;28;20042;-76
2022/08/18 10:02:27;;;;;;;5.53;2.13;;;21.70;99.90;;;;;;4995279;28;20054;-76
2022/08/18 10:05:18;;;;;;;4.72;2.28;;;21.60;99.90;;;;;;4995282;28;20061;-74
2022/08/18 10:08:00;;;;;;;3.80;1.77;;;21.50;99.90;;;;;;4995364;28;20054;-74
2022/08/18 10:10:46;;;;;;;3.67;2.15;;;21.60;99.90;;;;;;4995271;28;20050;-75
2022/08/18 10:13:20;;;;;;;2.45;1.58;;;21.50;99.90;;;;;;4995481;28;20058;-75
2022/08/18 10:15:48;;;;;;;3.28;1.50;;;21.50;99.90;;;;;;4995246;28;20053;-76
2022/08/18 10:18:36;;;;;;;4.30;3.03;;;21.30;99.90;;;;;;4995024;28;20061;-75
2022/08/18 10:21:26;;;;;;;2.88;1.60;;;21.20;99.90;;;;;;4995214;28;20054;-75
2022/08/18 10:23:54;;;;;;;3.60;2.38;;;21.10;99.90;;;;;;4995206;28;20042;-76
2022/08/18 10:26:49;;;;;;;4.30;2.08;;;21.20;99.90;;;;;;4994693;28;20054;-76
2022/08/18 10:29:24;;;;;;;3.03;1.60;;;21.00;99.90;;;;;;4985500;28;20113;-75
2022/08/18 10:31:57;;;;;;;4.47;2.75;;;21.10;99.90;;;;;;4995345;28;20393;-77
2022/08/18 10:34:51;;;;;;;2.83;1.55;;;21.20;99.90;;;;;;4994777;28;20553;-76
2022/08/18 10:37:29;;;;;;;4.43;1.95;;;21.20;99.90;;;;;;4994624;28;20046;-75
2022/08/18 10:40:01;;;;;;;4.43;1.52;;;21.50;99.90;;;;;;4978293;28;20038;-76
2022/08/18 10:42:37;;;;;;;2.78;1.60;;;21.80;99.90;;;;;;4994657;28;20050;-76
2022/08/18 10:45:22;;;;;;;2.30;2.00;;;22.10;99.90;;;;;;4994454;28;20061;-76
2022/08/18 10:48:19;;;;;;;4.25;2.30;;;22.00;99.90;;;;;;4994957;28;20057;-76
2022/08/18 10:50:52;;;;;;;2.67;1.83;;;21.90;99.90;;;;;;4974969;28;20063;-75
2022/08/18 10:53:55;;;;;;;4.70;1.90;;;22.00;99.90;;;;;;4994256;28;20046;-77
2022/08/18 10:56:46;;;;;;;1.55;1.45;;;21.80;99.90;;;;;;4994116;28;20054;-76
2022/08/18 10:59:33;;;;;;;5.90;2.50;;;21.70;99.90;;;;;;4994063;28;20084;-75
2022/08/18 11:02:51;;;;;;;3.03;1.90;;;21.40;99.90;;;;;;4993278;28;20083;-76
2022/08/18 11:05:23;;;;;;;3.20;2.17;;;21.50;99.90;;;;;;4937500;28;20104;-76
2022/08/18 11:07:53;;;;;;;3.28;1.83;;;21.60;99.90;;;;;;4994291;28;20049;-77
2022/08/18 11:10:34;;;;;;;3.92;2.25;;;21.70;99.90;;;;;;4994429;28;20050;-77
2022/08/18 11:13:10;;;;;;;2.22;1.70;;;21.80;99.90;;;;;;4994111;28;20178;-78
2022/08/18 11:15:56;;;;;;;5.30;1.92;;;21.70;99.90;;;;;;4994408;28;20061;-77
2022/08/18 11:18:35;;;;;;;4.18;1.88;;;21.80;99.90;;;;;;4993805;28;20049;-76
2022/08/18 11:21:34;;;;;;;5.55;2.00;;;22.00;99.90;;;;;;4993746;28;20056;-76
2022/08/18 11:24:25;;;;;;;7.43;2.60;;;22.30;99.90;;;;;;5117315;27;1275144;-77
2022/08/18 11:27:13;;;;;;;2.67;1.73;;;22.50;99.90;;;;;;5146166;27;20388;-77
2022/08/18 11:29:40;;;;;;;3.55;1.98;;;23.00;99.90;;;;;;5110220;27;20055;-77
2022/08/18 11:32:15;;;;;;;3.88;2.22;;;23.30;99.90;;;;;;5151808;27;20578;-78
2022/08/18 11:34:51;;;;;;;4.78;1.90;;;23.20;99.90;;;;;;5153460;27;20042;-77
2022/08/18 11:37:27;;;;;;;2.88;1.75;;;23.30;99.90;;;;;;5152832;27;20050;-77
2022/08/18 11:39:56;;;;;;;3.78;1.95;;;23.40;99.90;;;;;;5153062;27;20042;-77
2022/08/18 11:42:29;;;;;;;3.28;2.08;;;23.10;99.90;;;;;;5124941;27;20587;-77
2022/08/18 11:45:02;;;;;;;4.95;2.15;;;22.90;99.90;;;;;;5131900;27;20888;-79
2022/08/18 11:47:27;;;;;;;3.45;2.30;;;22.70;99.90;;;;;;5122026;27;20711;-77
2022/08/18 11:50:05;;;;;;;4.68;2.35;;;22.70;99.90;;;;;;5147473;27;20165;-78
2022/08/18 11:52:32;;;;;;;4.97;2.10;;;22.70;99.90;;;;;;5151125;27;20046;-76
2022/08/18 11:55:05;;;;;;;3.35;2.08;;;22.60;99.90;;;;;;5149853;27;20055;-77
2022/08/18 11:57:30;;;;;;;4.53;2.40;;;22.60;99.90;;;;;;5129705;27;20038;-77
2022/08/18 11:59:56;;;;;;;2.70;2.45;;;22.40;99.90;;;;;;5145753;27;20054;-77
2022/08/18 12:02:24;;;;;;;5.28;2.00;;;22.50;99.90;;;;;;5138884;27;20537;-76
2022/08/18 12:04:52;;;;;;;2.88;1.98;;;22.50;99.90;;;;;;5151921;27;20042;-76
2022/08/18 12:07:30;;;;;;;4.65;2.10;;;22.70;99.90;;;;;;5124211;27;20652;-75
2022/08/18 12:10:22;;;;;;;3.50;2.00;;;22.80;99.90;;;;;;5150049;27;20189;-77
2022/08/18 12:12:51;;;;;;;2.95;2.10;;;22.80;99.90;;;;;;5140911;27;20111;-78
2022/08/18 12:15:17;;;;;;;5.65;2.30;;;22.80;99.90;;;;;;5146786;27;20038;-77
2022/08/18 12:17:44;;;;;;;2.15;1.75;;;22.90;99.90;;;;;;5151116;27;20158;-78
2022/08/18 12:20:11;;;;;;;5.13;2.22;;;22.90;99.90;;;;;;4788669;27;9999860;-77
2022/08/18 12:22:41;;;;;;;6.90;2.30;;;22.90;99.90;;;;;;5144821;27;20870;-77
2022/08/18 12:25:13;;;;;;;7.00;2.30;;;22.80;99.90;;;;;;5147138;27;20580;-76
2022/08/18 12:27:39;;;;;;;2.53;1.95;;;22.80;99.90;;;;;;5145478;27;20537;-76
2022/08/18 12:30:07;;;;;;;6.10;2.42;;;22.80;99.90;;;;;;5104940;27;20141;-76
2022/08/18 12:32:34;;;;;;;3.60;2.00;;;22.70;99.90;;;;;;5144142;27;20099;-77
2022/08/18 12:35:02;;;;;;;5.93;2.22;;;22.70;99.90;;;;;;5110253;27;20043;-77
2022/08/18 12:37:28;;;;;;;2.50;1.85;;;22.70;99.90;;;;;;5132356;27;20584;-76
2022/08/18 12:39:56;;;;;;;3.22;1.70;;;22.90;99.90;;;;;;5135281;27;20081;-76
2022/08/18 12:42:22;;;;;;;2.60;1.75;;;22.90;99.90;;;;;;5114700;27;20046;-76
2022/08/18 12:44:48;;;;;;;3.67;2.50;;;23.00;99.90;;;;;;5136921;27;20070;-76
2022/08/18 12:47:17;;;;;;;5.93;1.98;;;22.90;99.90;;;;;;5135242;27;20050;-76
2022/08/18 12:49:43;;;;;;;2.55;1.83;;;23.00;99.90;;;;;;5128726;27;20126;-76
2022/08/18 12:52:10;;;;;;;4.82;2.10;;;23.20;99.90;;;;;;5131849;27;20973;-75
2022/08/18 12:54:35;;;;;;;4.22;2.25;;;23.10;99.90;;;;;;5131388;27;20055;-76
2022/08/18 12:57:05;;;;;;;3.08;2.05;;;22.90;99.90;;;;;;5106209;27;20051;-76
2022/08/18 12:59:31;;;;;;;4.70;2.00;;;22.80;99.90;;;;;;5130323;27;20049;-77
2022/08/18 13:01:56;;;;;;;5.03;1.83;;;23.10;99.90;;;;;;5132799;27;20123;-76
2022/08/18 13:04:22;;;;;;;4.60;2.22;;;23.20;99.90;;;;;;5131434;27;20074;-75
2022/08/18 13:06:58;;;;;;;3.20;2.10;;;23.20;99.90;;;;;;5105293;27;20043;-76
2022/08/18 13:09:24;;;;;;;2.75;2.30;;;23.20;99.90;;;;;;5133760;27;20058;-76
2022/08/18 13:11:50;;;;;;;3.63;1.95;;;23.20;99.90;;;;;;5132055;27;20046;-76
2022/08/18 13:14:16;;;;;;;2.33;1.90;;;23.30;99.90;;;;;;5098137;27;20931;-75
2022/08/18 13:16:44;;;;;;;2.30;1.80;;;23.40;99.90;;;;;;5134939;27;20131;-76
2022/08/18 13:19:12;;;;;;;4.00;1.85;;;23.30;99.90;;;;;;5126064;27;20866;-76
2022/08/18 13:21:38;;;;;;;2.08;1.85;;;23.30;99.90;;;;;;5133192;27;20042;-75
2022/08/18 13:24:04;;;;;;;2.13;1.70;;;23.50;99.90;;;;;;5131224;27;20118;-76
2022/08/18 13:26:42;;;;;;;2.33;2.00;;;23.40;99.90;;;;;;5132408;27;20047;-76
2022/08/18 13:29:08;;;;;;;4.18;2.17;;;23.40;99.90;;;;;;5130495;27;20059;-76
2022/08/18 13:31:34;;;;;;;3.10;2.20;;;23.60;99.90;;;;;;5132943;27;20114;-76